sensor_id;sensor_type;location;lat;lon;timestamp;pressure;altitude;pressure_sealevel;temperature;humidity
70072;BME280;57434;42.794;23.302;2023-06-14T00:00:32;95372.03;;;15.82;100.00
70072;BME280;57434;42.794;23.302;2023-06-14T00:01:34;95353.75;;;15.83;100.00
70072;BME280;57434;42.794;23.302;2023-06-14T00:02:36;95240.59;;;15.08;100.00
70072;BME280;57434;42.794;23.302;2023-06-14T00:03:38;95291.72;;;15.29;100.00
70072;BME280;57434;42.794;23.302;2023-06-14T00:04:40;95358.13;;;15.65;100.00
70072;BME280;57434;42.794;23.302;2023-06-14T00:05:41;95359.03;;;15.73;100.00
70072;BME280;57434;42.794;23.302;2023-06-14T00:06:44;95390.31;;;15.81;100.00
70072;BME280;57434;42.794;23.302;2023-06-14T00:07:46;95382.19;;;15.72;100.00
70072;BME280;57434;42.794;23.302;2023-06-14T00:08:48;95278.84;;;15.09;100.00
70072;BME280;57434;42.794;23.302;2023-06-14T00:09:50;95354.03;;;15.61;100.00
70072;BME280;57434;42.794;23.302;2023-06-14T00:10:51;95370.03;;;15.77;100.00
70072;BME280;57434;42.794;23.302;2023-06-14T00:11:53;95341.47;;;15.56;100.00
70072;BME280;57434;42.794;23.302;2023-06-14T00:12:55;95348.50;;;15.49;100.00
70072;BME280;57434;42.794;23.302;2023-06-14T00:13:57;95244.28;;;14.78;100.00
70072;BME280;57434;42.794;23.302;2023-06-14T00:14:59;95373.25;;;15.68;100.00
70072;BME280;57434;42.794;23.302;2023-06-14T00:16:01;95286.03;;;15.10;100.00
70072;BME280;57434;42.794;23.302;2023-06-14T00:17:03;95340.94;;;15.39;100.00
70072;BME280;57434;42.794;23.302;2023-06-14T00:18:05;95272.75;;;15.05;100.00
70072;BME280;57434;42.794;23.302;2023-06-14T00:19:07;95369.88;;;15.69;100.00
70072;BME280;57434;42.794;23.302;2023-06-14T00:20:10;95354.09;;;15.55;100.00
70072;BME280;57434;42.794;23.302;2023-06-14T00:21:12;95362.72;;;15.68;100.00
70072;BME280;57434;42.794;23.302;2023-06-14T00:22:14;95270.97;;;15.02;100.00
70072;BME280;57434;42.794;23.302;2023-06-14T00:23:16;95269.63;;;15.08;100.00
70072;BME280;57434;42.794;23.302;2023-06-14T00:24:18;95373.03;;;15.66;100.00
70072;BME280;57434;42.794;23.302;2023-06-14T00:25:20;95363.69;;;15.71;100.00
70072;BME280;57434;42.794;23.302;2023-06-14T00:26:29;95361.47;;;15.64;100.00
70072;BME280;57434;42.794;23.302;2023-06-14T00:27:31;95358.66;;;15.64;100.00
70072;BME280;57434;42.794;23.302;2023-06-14T00:28:33;95363.03;;;15.59;100.00
70072;BME280;57434;42.794;23.302;2023-06-14T00:29:35;95241.41;;;14.84;100.00
70072;BME280;57434;42.794;23.302;2023-06-14T00:30:37;95352.09;;;15.50;100.00
70072;BME280;57434;42.794;23.302;2023-06-14T00:31:39;95350.78;;;15.51;100.00
70072;BME280;57434;42.794;23.302;2023-06-14T00:32:41;95334.88;;;15.29;100.00
70072;BME280;57434;42.794;23.302;2023-06-14T00:33:43;95354.16;;;15.49;100.00
70072;BME280;57434;42.794;23.302;2023-06-14T00:34:44;95318.75;;;15.24;100.00
70072;BME280;57434;42.794;23.302;2023-06-14T00:35:46;95239.16;;;14.77;100.00
70072;BME280;57434;42.794;23.302;2023-06-14T00:36:48;95254.38;;;14.93;100.00
70072;BME280;57434;42.794;23.302;2023-06-14T00:37:50;95282.28;;;15.02;100.00
70072;BME280;57434;42.794;23.302;2023-06-14T00:38:52;95282.69;;;15.11;100.00
70072;BME280;57434;42.794;23.302;2023-06-14T00:39:54;95306.09;;;15.31;100.00
70072;BME280;57434;42.794;23.302;2023-06-14T00:40:55;95240.63;;;14.83;100.00
70072;BME280;57434;42.794;23.302;2023-06-14T00:41:57;95298.72;;;15.22;100.00
70072;BME280;57434;42.794;23.302;2023-06-14T00:42:59;95215.09;;;14.70;100.00
70072;BME280;57434;42.794;23.302;2023-06-14T00:44:01;95264.78;;;15.03;100.00
70072;BME280;57434;42.794;23.302;2023-06-14T00:45:04;95297.97;;;15.21;100.00
70072;BME280;57434;42.794;23.302;2023-06-14T00:46:06;95323.97;;;15.39;100.00
70072;BME280;57434;42.794;23.302;2023-06-14T00:47:08;95208.41;;;14.73;100.00
70072;BME280;57434;42.794;23.302;2023-06-14T00:48:10;95345.19;;;15.45;100.00
70072;BME280;57434;42.794;23.302;2023-06-14T00:49:17;95219.97;;;14.70;100.00
70072;BME280;57434;42.794;23.302;2023-06-14T00:50:21;95345.34;;;15.34;100.00
70072;BME280;57434;42.794;23.302;2023-06-14T00:51:23;95317.75;;;15.21;100.00
70072;BME280;57434;42.794;23.302;2023-06-14T00:52:25;95240.03;;;14.66;100.00
70072;BME280;57434;42.794;23.302;2023-06-14T00:53:28;95273.38;;;14.92;100.00
70072;BME280;57434;42.794;23.302;2023-06-14T00:54:30;95247.94;;;14.73;100.00
70072;BME280;57434;42.794;23.302;2023-06-14T00:55:32;95251.69;;;14.81;100.00
70072;BME280;57434;42.794;23.302;2023-06-14T00:56:35;95367.81;;;15.45;100.00
70072;BME280;57434;42.794;23.302;2023-06-14T00:57:38;95266.72;;;14.89;100.00
70072;BME280;57434;42.794;23.302;2023-06-14T00:58:41;95243.34;;;14.70;100.00
70072;BME280;57434;42.794;23.302;2023-06-14T00:59:46;95249.94;;;14.78;100.00
70072;BME280;57434;42.794;23.302;2023-06-14T01:00:48;95244.88;;;14.71;100.00
70072;BME280;57434;42.794;23.302;2023-06-14T01:01:50;95329.16;;;15.35;100.00
70072;BME280;57434;42.794;23.302;2023-06-14T01:02:52;95247.59;;;14.82;100.00
70072;BME280;57434;42.794;23.302;2023-06-14T01:03:54;95227.69;;;14.69;100.00
70072;BME280;57434;42.794;23.302;2023-06-14T01:04:56;95350.84;;;15.45;100.00
70072;BME280;57434;42.794;23.302;2023-06-14T01:09:18;95237.97;;;14.67;100.00
70072;BME280;57434;42.794;23.302;2023-06-14T01:12:47;95347.44;;;15.52;100.00
70072;BME280;57434;42.794;23.302;2023-06-14T01:13:52;95255.91;;;14.94;100.00
70072;BME280;57434;42.794;23.302;2023-06-14T01:14:55;95308.44;;;15.27;100.00
70072;BME280;57434;42.794;23.302;2023-06-14T01:15:59;95325.28;;;15.38;100.00
70072;BME280;57434;42.794;23.302;2023-06-14T01:17:02;95325.34;;;15.32;100.00
70072;BME280;57434;42.794;23.302;2023-06-14T01:18:04;95362.31;;;15.34;100.00
70072;BME280;57434;42.794;23.302;2023-06-14T01:19:10;95328.75;;;15.25;100.00
70072;BME280;57434;42.794;23.302;2023-06-14T01:20:13;95229.56;;;14.61;100.00
70072;BME280;57434;42.794;23.302;2023-06-14T01:21:24;95233.41;;;14.64;100.00
70072;BME280;57434;42.794;23.302;2023-06-14T01:22:26;95218.59;;;14.57;100.00
70072;BME280;57434;42.794;23.302;2023-06-14T01:23:28;95321.03;;;15.25;100.00
70072;BME280;57434;42.794;23.302;2023-06-14T01:24:30;95367.78;;;15.27;100.00
70072;BME280;57434;42.794;23.302;2023-06-14T01:25:32;95246.59;;;14.50;100.00
70072;BME280;57434;42.794;23.302;2023-06-14T01:26:35;95330.97;;;15.13;100.00
70072;BME280;57434;42.794;23.302;2023-06-14T01:27:37;95350.19;;;14.90;100.00
70072;BME280;57434;42.794;23.302;2023-06-14T01:28:39;95355.50;;;15.00;100.00
70072;BME280;57434;42.794;23.302;2023-06-14T01:29:41;95332.88;;;15.00;100.00
70072;BME280;57434;42.794;23.302;2023-06-14T01:30:51;95234.38;;;14.42;100.00
70072;BME280;57434;42.794;23.302;2023-06-14T01:31:54;95321.41;;;14.92;100.00
70072;BME280;57434;42.794;23.302;2023-06-14T01:32:56;95145.78;;;13.72;100.00
70072;BME280;57434;42.794;23.302;2023-06-14T01:33:59;95245.19;;;14.38;100.00
70072;BME280;57434;42.794;23.302;2023-06-14T01:35:01;95238.84;;;14.32;100.00
70072;BME280;57434;42.794;23.302;2023-06-14T01:36:05;95343.38;;;15.05;100.00
70072;BME280;57434;42.794;23.302;2023-06-14T01:37:08;95337.19;;;15.06;100.00
70072;BME280;57434;42.794;23.302;2023-06-14T01:38:14;95234.50;;;14.31;100.00
70072;BME280;57434;42.794;23.302;2023-06-14T01:39:17;95219.13;;;14.26;100.00
70072;BME280;57434;42.794;23.302;2023-06-14T01:40:21;95346.25;;;14.99;100.00
70072;BME280;57434;42.794;23.302;2023-06-14T01:41:24;95324.00;;;14.90;100.00
70072;BME280;57434;42.794;23.302;2023-06-14T01:42:27;95282.16;;;14.64;100.00
70072;BME280;57434;42.794;23.302;2023-06-14T01:43:31;95345.97;;;15.03;100.00
70072;BME280;57434;42.794;23.302;2023-06-14T01:44:33;95318.34;;;14.90;100.00
70072;BME280;57434;42.794;23.302;2023-06-14T01:45:36;95243.31;;;14.46;100.00
70072;BME280;57434;42.794;23.302;2023-06-14T01:46:38;95237.63;;;14.51;100.00
70072;BME280;57434;42.794;23.302;2023-06-14T01:47:40;95350.34;;;15.22;100.00
70072;BME280;57434;42.794;23.302;2023-06-14T01:48:42;95336.00;;;15.20;100.00
70072;BME280;57434;42.794;23.302;2023-06-14T01:49:46;95319.47;;;15.06;100.00
70072;BME280;57434;42.794;23.302;2023-06-14T01:50:49;95343.06;;;15.33;100.00
70072;BME280;57434;42.794;23.302;2023-06-14T01:51:51;95326.28;;;15.16;100.00
70072;BME280;57434;42.794;23.302;2023-06-14T01:52:53;95362.13;;;15.27;100.00
70072;BME280;57434;42.794;23.302;2023-06-14T01:53:54;95256.44;;;14.68;100.00
70072;BME280;57434;42.794;23.302;2023-06-14T01:54:56;95231.19;;;14.51;100.00
70072;BME280;57434;42.794;23.302;2023-06-14T01:55:58;95349.81;;;15.24;100.00
70072;BME280;57434;42.794;23.302;2023-06-14T01:57:00;95248.34;;;14.59;100.00
70072;BME280;57434;42.794;23.302;2023-06-14T01:58:03;95337.00;;;15.23;100.00
70072;BME280;57434;42.794;23.302;2023-06-14T01:59:04;95354.84;;;15.37;100.00
70072;BME280;57434;42.794;23.302;2023-06-14T02:00:07;95284.97;;;14.88;100.00
70072;BME280;57434;42.794;23.302;2023-06-14T02:01:09;95354.66;;;15.29;100.00
70072;BME280;57434;42.794;23.302;2023-06-14T02:02:11;95324.53;;;15.13;100.00
70072;BME280;57434;42.794;23.302;2023-06-14T02:03:12;95244.97;;;14.60;100.00
70072;BME280;57434;42.794;23.302;2023-06-14T02:04:14;95253.16;;;14.64;100.00
70072;BME280;57434;42.794;23.302;2023-06-14T02:05:16;95231.25;;;14.45;100.00
70072;BME280;57434;42.794;23.302;2023-06-14T02:06:18;95369.03;;;15.31;100.00
70072;BME280;57434;42.794;23.302;2023-06-14T02:07:20;95270.94;;;14.59;100.00
70072;BME280;57434;42.794;23.302;2023-06-14T02:08:22;95247.34;;;14.56;100.00
70072;BME280;57434;42.794;23.302;2023-06-14T02:09:24;95277.94;;;14.76;100.00
70072;BME280;57434;42.794;23.302;2023-06-14T02:10:26;95366.78;;;15.24;100.00
70072;BME280;57434;42.794;23.302;2023-06-14T02:11:28;95370.13;;;15.22;100.00
70072;BME280;57434;42.794;23.302;2023-06-14T02:12:29;95367.25;;;15.28;100.00
70072;BME280;57434;42.794;23.302;2023-06-14T02:13:31;95357.47;;;15.29;100.00
70072;BME280;57434;42.794;23.302;2023-06-14T02:14:33;95232.78;;;14.46;100.00
70072;BME280;57434;42.794;23.302;2023-06-14T02:15:35;95360.84;;;15.28;100.00
70072;BME280;57434;42.794;23.302;2023-06-14T02:16:37;95353.41;;;15.24;100.00
70072;BME280;57434;42.794;23.302;2023-06-14T02:17:39;95288.41;;;14.81;100.00
70072;BME280;57434;42.794;23.302;2023-06-14T02:18:41;95252.50;;;14.52;100.00
70072;BME280;57434;42.794;23.302;2023-06-14T02:19:43;95272.38;;;14.65;100.00
70072;BME280;57434;42.794;23.302;2023-06-14T02:20:44;95357.69;;;15.12;100.00
70072;BME280;57434;42.794;23.302;2023-06-14T02:21:47;95369.19;;;15.39;100.00
70072;BME280;57434;42.794;23.302;2023-06-14T02:22:49;95321.75;;;15.07;100.00
70072;BME280;57434;42.794;23.302;2023-06-14T02:23:51;95369.97;;;15.39;100.00
70072;BME280;57434;42.794;23.302;2023-06-14T02:24:52;95359.97;;;15.38;100.00
70072;BME280;57434;42.794;23.302;2023-06-14T02:26:03;95290.94;;;14.85;100.00
70072;BME280;57434;42.794;23.302;2023-06-14T02:27:04;95360.50;;;15.37;100.00
70072;BME280;57434;42.794;23.302;2023-06-14T02:28:06;95365.97;;;15.29;100.00
70072;BME280;57434;42.794;23.302;2023-06-14T02:29:08;95379.28;;;15.34;100.00
70072;BME280;57434;42.794;23.302;2023-06-14T02:30:11;95304.75;;;14.88;100.00
70072;BME280;57434;42.794;23.302;2023-06-14T02:31:13;95271.38;;;14.63;100.00
70072;BME280;57434;42.794;23.302;2023-06-14T02:32:15;95383.56;;;15.41;100.00
70072;BME280;57434;42.794;23.302;2023-06-14T02:33:17;95288.81;;;14.67;100.00
70072;BME280;57434;42.794;23.302;2023-06-14T02:34:19;95292.97;;;14.60;100.00
70072;BME280;57434;42.794;23.302;2023-06-14T02:35:20;95272.81;;;14.45;100.00
70072;BME280;57434;42.794;23.302;2023-06-14T02:36:22;95398.78;;;15.13;100.00
70072;BME280;57434;42.794;23.302;2023-06-14T02:37:24;95373.09;;;15.11;100.00
70072;BME280;57434;42.794;23.302;2023-06-14T02:38:26;95387.09;;;15.22;100.00
70072;BME280;57434;42.794;23.302;2023-06-14T02:39:28;95285.25;;;14.61;100.00
70072;BME280;57434;42.794;23.302;2023-06-14T02:40:30;95255.41;;;14.41;100.00
70072;BME280;57434;42.794;23.302;2023-06-14T02:41:32;95341.84;;;15.04;100.00
70072;BME280;57434;42.794;23.302;2023-06-14T02:42:34;95299.00;;;14.75;100.00
70072;BME280;57434;42.794;23.302;2023-06-14T02:43:36;95364.25;;;15.20;100.00
70072;BME280;57434;42.794;23.302;2023-06-14T02:44:38;95267.56;;;14.60;100.00
70072;BME280;57434;42.794;23.302;2023-06-14T02:45:40;95324.19;;;14.98;100.00
70072;BME280;57434;42.794;23.302;2023-06-14T02:46:41;95352.78;;;15.13;100.00
70072;BME280;57434;42.794;23.302;2023-06-14T02:47:43;95287.13;;;14.58;100.00
70072;BME280;57434;42.794;23.302;2023-06-14T02:48:45;95371.03;;;15.12;100.00
70072;BME280;57434;42.794;23.302;2023-06-14T02:49:47;95357.84;;;15.20;100.00
70072;BME280;57434;42.794;23.302;2023-06-14T02:50:49;95377.84;;;15.22;100.00
70072;BME280;57434;42.794;23.302;2023-06-14T02:51:51;95264.56;;;14.52;100.00
70072;BME280;57434;42.794;23.302;2023-06-14T02:52:52;95355.97;;;15.04;100.00
70072;BME280;57434;42.794;23.302;2023-06-14T02:53:54;95362.44;;;15.23;100.00
70072;BME280;57434;42.794;23.302;2023-06-14T02:54:56;95236.19;;;14.39;100.00
70072;BME280;57434;42.794;23.302;2023-06-14T02:55:58;95231.34;;;14.34;100.00
70072;BME280;57434;42.794;23.302;2023-06-14T02:57:00;95258.13;;;14.52;100.00
70072;BME280;57434;42.794;23.302;2023-06-14T02:58:01;95314.88;;;14.78;100.00
70072;BME280;57434;42.794;23.302;2023-06-14T02:59:03;95342.41;;;14.97;100.00
70072;BME280;57434;42.794;23.302;2023-06-14T03:00:05;95343.22;;;14.91;100.00
70072;BME280;57434;42.794;23.302;2023-06-14T03:01:07;95331.78;;;14.84;100.00
70072;BME280;57434;42.794;23.302;2023-06-14T03:02:09;95308.53;;;14.72;100.00
70072;BME280;57434;42.794;23.302;2023-06-14T03:03:11;95263.34;;;14.42;100.00
70072;BME280;57434;42.794;23.302;2023-06-14T03:04:13;95387.88;;;15.23;100.00
70072;BME280;57434;42.794;23.302;2023-06-14T03:05:15;95402.53;;;15.21;100.00
70072;BME280;57434;42.794;23.302;2023-06-14T03:06:16;95374.91;;;15.09;100.00
70072;BME280;57434;42.794;23.302;2023-06-14T03:07:18;95271.16;;;14.61;100.00
70072;BME280;57434;42.794;23.302;2023-06-14T03:08:20;95246.13;;;14.46;100.00
70072;BME280;57434;42.794;23.302;2023-06-14T03:09:22;95390.41;;;15.27;100.00
70072;BME280;57434;42.794;23.302;2023-06-14T03:10:24;95406.25;;;15.35;100.00
70072;BME280;57434;42.794;23.302;2023-06-14T03:11:26;95267.13;;;14.56;100.00
70072;BME280;57434;42.794;23.302;2023-06-14T03:12:29;95370.44;;;15.19;100.00
70072;BME280;57434;42.794;23.302;2023-06-14T03:13:31;95408.59;;;15.31;100.00
70072;BME280;57434;42.794;23.302;2023-06-14T03:14:33;95277.38;;;14.53;100.00
70072;BME280;57434;42.794;23.302;2023-06-14T03:15:35;95368.44;;;15.14;100.00
70072;BME280;57434;42.794;23.302;2023-06-14T03:16:37;95298.81;;;14.68;100.00
70072;BME280;57434;42.794;23.302;2023-06-14T03:17:39;95372.25;;;15.16;100.00
70072;BME280;57434;42.794;23.302;2023-06-14T03:18:40;95391.63;;;15.31;100.00
70072;BME280;57434;42.794;23.302;2023-06-14T03:19:43;95409.84;;;15.36;100.00
70072;BME280;57434;42.794;23.302;2023-06-14T03:20:44;95335.00;;;14.94;100.00
70072;BME280;57434;42.794;23.302;2023-06-14T03:21:46;95385.50;;;15.27;100.00
70072;BME280;57434;42.794;23.302;2023-06-14T03:22:48;95383.22;;;15.25;100.00
70072;BME280;57434;42.794;23.302;2023-06-14T03:23:50;95368.06;;;15.23;100.00
70072;BME280;57434;42.794;23.302;2023-06-14T03:24:52;95391.06;;;15.38;100.00
70072;BME280;57434;42.794;23.302;2023-06-14T03:25:54;95378.28;;;15.32;100.00
70072;BME280;57434;42.794;23.302;2023-06-14T03:26:56;95284.09;;;14.75;100.00
70072;BME280;57434;42.794;23.302;2023-06-14T03:27:57;95395.97;;;15.56;100.00
70072;BME280;57434;42.794;23.302;2023-06-14T03:28:59;95287.34;;;14.84;100.00
70072;BME280;57434;42.794;23.302;2023-06-14T03:30:01;95329.94;;;15.11;100.00
70072;BME280;57434;42.794;23.302;2023-06-14T03:31:03;95205.66;;;14.38;100.00
70072;BME280;57434;42.794;23.302;2023-06-14T03:32:05;95310.06;;;14.98;100.00
70072;BME280;57434;42.794;23.302;2023-06-14T03:33:06;95381.72;;;15.43;100.00
70072;BME280;57434;42.794;23.302;2023-06-14T03:34:08;95294.22;;;14.89;100.00
70072;BME280;57434;42.794;23.302;2023-06-14T03:35:10;95384.78;;;15.45;100.00
70072;BME280;57434;42.794;23.302;2023-06-14T03:36:12;95310.75;;;15.04;100.00
70072;BME280;57434;42.794;23.302;2023-06-14T03:37:14;95385.53;;;15.46;100.00
70072;BME280;57434;42.794;23.302;2023-06-14T03:38:15;95388.91;;;15.44;100.00
70072;BME280;57434;42.794;23.302;2023-06-14T03:39:17;95301.56;;;14.98;100.00
70072;BME280;57434;42.794;23.302;2023-06-14T03:40:20;95262.28;;;14.75;100.00
70072;BME280;57434;42.794;23.302;2023-06-14T03:41:22;95375.63;;;15.39;100.00
70072;BME280;57434;42.794;23.302;2023-06-14T03:42:24;95334.41;;;15.01;100.00
70072;BME280;57434;42.794;23.302;2023-06-14T03:43:25;95387.06;;;15.47;100.00
70072;BME280;57434;42.794;23.302;2023-06-14T03:44:27;95377.59;;;15.44;100.00
70072;BME280;57434;42.794;23.302;2023-06-14T03:45:29;95314.69;;;14.95;100.00
70072;BME280;57434;42.794;23.302;2023-06-14T03:46:31;95338.34;;;15.16;100.00
70072;BME280;57434;42.794;23.302;2023-06-14T03:47:33;95364.38;;;15.34;100.00
70072;BME280;57434;42.794;23.302;2023-06-14T03:48:36;95287.34;;;14.84;100.00
70072;BME280;57434;42.794;23.302;2023-06-14T03:49:37;95392.16;;;15.54;100.00
70072;BME280;57434;42.794;23.302;2023-06-14T03:50:39;95401.56;;;15.62;100.00
70072;BME280;57434;42.794;23.302;2023-06-14T03:51:41;95337.94;;;15.31;100.00
70072;BME280;57434;42.794;23.302;2023-06-14T03:52:43;95405.34;;;15.46;100.00
70072;BME280;57434;42.794;23.302;2023-06-14T03:53:45;95373.56;;;15.40;100.00
70072;BME280;57434;42.794;23.302;2023-06-14T03:55:07;95271.03;;;14.72;100.00
70072;BME280;57434;42.794;23.302;2023-06-14T03:56:12;95406.50;;;15.56;100.00
70072;BME280;57434;42.794;23.302;2023-06-14T03:57:15;95400.00;;;15.67;100.00
70072;BME280;57434;42.794;23.302;2023-06-14T03:58:16;95398.56;;;15.54;100.00
70072;BME280;57434;42.794;23.302;2023-06-14T03:59:18;95388.03;;;15.55;100.00
70072;BME280;57434;42.794;23.302;2023-06-14T04:00:20;95288.50;;;14.95;100.00
70072;BME280;57434;42.794;23.302;2023-06-14T04:01:22;95385.25;;;15.49;100.00
70072;BME280;57434;42.794;23.302;2023-06-14T04:02:23;95307.59;;;15.13;100.00
70072;BME280;57434;42.794;23.302;2023-06-14T04:03:25;95394.78;;;15.71;100.00
70072;BME280;57434;42.794;23.302;2023-06-14T04:04:28;95302.38;;;15.17;100.00
70072;BME280;57434;42.794;23.302;2023-06-14T04:05:30;95382.53;;;15.63;100.00
70072;BME280;57434;42.794;23.302;2023-06-14T04:06:32;95305.88;;;15.04;100.00
70072;BME280;57434;42.794;23.302;2023-06-14T04:07:34;95402.22;;;15.74;100.00
70072;BME280;57434;42.794;23.302;2023-06-14T04:08:36;95395.50;;;15.52;100.00
70072;BME280;57434;42.794;23.302;2023-06-14T04:09:39;95362.88;;;15.51;100.00
70072;BME280;57434;42.794;23.302;2023-06-14T04:10:41;95402.91;;;15.80;100.00
70072;BME280;57434;42.794;23.302;2023-06-14T04:11:43;95366.34;;;15.63;100.00
70072;BME280;57434;42.794;23.302;2023-06-14T04:12:44;95405.50;;;15.78;100.00
70072;BME280;57434;42.794;23.302;2023-06-14T04:13:46;95406.06;;;15.95;100.00
70072;BME280;57434;42.794;23.302;2023-06-14T04:14:48;95413.63;;;15.87;100.00
70072;BME280;57434;42.794;23.302;2023-06-14T04:15:50;95327.78;;;15.41;100.00
70072;BME280;57434;42.794;23.302;2023-06-14T04:16:52;95320.16;;;15.36;100.00
70072;BME280;57434;42.794;23.302;2023-06-14T04:17:54;95314.97;;;15.40;100.00
70072;BME280;57434;42.794;23.302;2023-06-14T04:18:56;95313.44;;;15.15;100.00
70072;BME280;57434;42.794;23.302;2023-06-14T04:19:59;95369.69;;;15.62;100.00
70072;BME280;57434;42.794;23.302;2023-06-14T04:21:00;95281.44;;;15.07;100.00
70072;BME280;57434;42.794;23.302;2023-06-14T04:22:02;95344.34;;;15.32;100.00
70072;BME280;57434;42.794;23.302;2023-06-14T04:23:14;95396.19;;;15.64;100.00
70072;BME280;57434;42.794;23.302;2023-06-14T04:24:16;95410.69;;;15.74;100.00
70072;BME280;57434;42.794;23.302;2023-06-14T04:25:18;95405.44;;;15.83;100.00
70072;BME280;57434;42.794;23.302;2023-06-14T04:26:27;95342.16;;;15.43;100.00
70072;BME280;57434;42.794;23.302;2023-06-14T04:27:28;95423.41;;;15.67;100.00
70072;BME280;57434;42.794;23.302;2023-06-14T04:28:30;95403.91;;;15.58;100.00
70072;BME280;57434;42.794;23.302;2023-06-14T04:29:32;95422.25;;;15.51;100.00
70072;BME280;57434;42.794;23.302;2023-06-14T04:30:34;95372.47;;;15.43;100.00
70072;BME280;57434;42.794;23.302;2023-06-14T04:31:36;95294.63;;;14.99;100.00
70072;BME280;57434;42.794;23.302;2023-06-14T04:32:37;95397.50;;;15.82;100.00
70072;BME280;57434;42.794;23.302;2023-06-14T04:33:39;95389.59;;;15.75;100.00
70072;BME280;57434;42.794;23.302;2023-06-14T04:34:42;95337.72;;;15.48;100.00
70072;BME280;57434;42.794;23.302;2023-06-14T04:35:43;95408.56;;;15.99;100.00
70072;BME280;57434;42.794;23.302;2023-06-14T04:36:45;95420.00;;;16.12;100.00
70072;BME280;57434;42.794;23.302;2023-06-14T04:37:47;95403.31;;;16.08;100.00
70072;BME280;57434;42.794;23.302;2023-06-14T04:38:49;95299.59;;;15.54;100.00
70072;BME280;57434;42.794;23.302;2023-06-14T04:39:50;95292.19;;;15.51;100.00
70072;BME280;57434;42.794;23.302;2023-06-14T04:40:52;95403.69;;;16.18;100.00
70072;BME280;57434;42.794;23.302;2023-06-14T04:41:54;95300.31;;;15.61;100.00
70072;BME280;57434;42.794;23.302;2023-06-14T04:42:56;95396.44;;;16.22;100.00
70072;BME280;57434;42.794;23.302;2023-06-14T04:43:59;95415.91;;;16.26;100.00
70072;BME280;57434;42.794;23.302;2023-06-14T04:45:02;95283.94;;;15.53;100.00
70072;BME280;57434;42.794;23.302;2023-06-14T04:46:05;95297.38;;;15.47;100.00
70072;BME280;57434;42.794;23.302;2023-06-14T04:47:07;95409.56;;;16.01;100.00
70072;BME280;57434;42.794;23.302;2023-06-14T04:48:09;95391.16;;;16.13;100.00
70072;BME280;57434;42.794;23.302;2023-06-14T04:49:11;95397.56;;;16.14;100.00
70072;BME280;57434;42.794;23.302;2023-06-14T04:50:13;95418.84;;;16.20;100.00
70072;BME280;57434;42.794;23.302;2023-06-14T04:51:15;95393.91;;;16.19;100.00
70072;BME280;57434;42.794;23.302;2023-06-14T04:52:17;95366.75;;;16.10;100.00
70072;BME280;57434;42.794;23.302;2023-06-14T04:53:20;95311.31;;;15.83;100.00
70072;BME280;57434;42.794;23.302;2023-06-14T04:54:23;95421.59;;;16.45;100.00
70072;BME280;57434;42.794;23.302;2023-06-14T04:55:25;95300.31;;;15.79;100.00
70072;BME280;57434;42.794;23.302;2023-06-14T04:56:27;95304.44;;;15.78;100.00
70072;BME280;57434;42.794;23.302;2023-06-14T04:57:28;95425.41;;;16.47;100.00
70072;BME280;57434;42.794;23.302;2023-06-14T04:58:30;95396.72;;;16.38;100.00
70072;BME280;57434;42.794;23.302;2023-06-14T04:59:32;95419.66;;;16.53;100.00
70072;BME280;57434;42.794;23.302;2023-06-14T05:00:34;95425.72;;;16.44;100.00
70072;BME280;57434;42.794;23.302;2023-06-14T05:01:36;95412.56;;;16.46;100.00
70072;BME280;57434;42.794;23.302;2023-06-14T05:02:37;95398.69;;;16.43;100.00
70072;BME280;57434;42.794;23.302;2023-06-14T05:03:40;95287.78;;;15.75;100.00
70072;BME280;57434;42.794;23.302;2023-06-14T05:04:42;95389.78;;;16.52;100.00
70072;BME280;57434;42.794;23.302;2023-06-14T05:05:44;95303.22;;;15.92;100.00
70072;BME280;57434;42.794;23.302;2023-06-14T05:06:45;95434.34;;;16.70;100.00
70072;BME280;57434;42.794;23.302;2023-06-14T05:07:47;95427.75;;;16.62;100.00
70072;BME280;57434;42.794;23.302;2023-06-14T05:08:49;95338.75;;;16.07;100.00
70072;BME280;57434;42.794;23.302;2023-06-14T05:09:51;95415.19;;;16.57;100.00
70072;BME280;57434;42.794;23.302;2023-06-14T05:10:53;95430.88;;;16.58;100.00
70072;BME280;57434;42.794;23.302;2023-06-14T05:11:55;95402.91;;;16.36;100.00
70072;BME280;57434;42.794;23.302;2023-06-14T05:12:56;95305.50;;;15.75;100.00
70072;BME280;57434;42.794;23.302;2023-06-14T05:13:58;95380.66;;;16.27;100.00
70072;BME280;57434;42.794;23.302;2023-06-14T05:15:00;95439.78;;;16.68;100.00
70072;BME280;57434;42.794;23.302;2023-06-14T05:16:02;95318.44;;;15.89;100.00
70072;BME280;57434;42.794;23.302;2023-06-14T05:17:04;95427.16;;;16.69;100.00
70072;BME280;57434;42.794;23.302;2023-06-14T05:18:06;95335.94;;;16.07;100.00
70072;BME280;57434;42.794;23.302;2023-06-14T05:19:08;95453.00;;;16.79;100.00
70072;BME280;57434;42.794;23.302;2023-06-14T05:20:10;95439.78;;;16.68;100.00
70072;BME280;57434;42.794;23.302;2023-06-14T05:21:12;95448.34;;;16.63;100.00
70072;BME280;57434;42.794;23.302;2023-06-14T05:22:13;95424.63;;;16.66;100.00
70072;BME280;57434;42.794;23.302;2023-06-14T05:23:15;95425.84;;;16.70;100.00
70072;BME280;57434;42.794;23.302;2023-06-14T05:24:17;95363.97;;;16.23;100.00
70072;BME280;57434;42.794;23.302;2023-06-14T05:25:20;95341.81;;;16.09;100.00
70072;BME280;57434;42.794;23.302;2023-06-14T05:26:22;95362.47;;;16.22;100.00
70072;BME280;57434;42.794;23.302;2023-06-14T05:27:23;95470.09;;;16.73;100.00